sensor_id;sensor_type;location;lat;lon;timestamp;pressure;altitude;pressure_sealevel;temperature;humidity
9855;BME280;4966;48.112;9.282;2022-07-06T00:02:19;95277.97;;;13.69;80.06
9855;BME280;4966;48.112;9.282;2022-07-06T00:04:44;95276.97;;;13.49;81.07
9855;BME280;4966;48.112;9.282;2022-07-06T00:07:10;95280.31;;;13.22;83.17
9855;BME280;4966;48.112;9.282;2022-07-06T00:09:35;95275.88;;;13.05;83.38
9855;BME280;4966;48.112;9.282;2022-07-06T00:12:00;95276.94;;;13.12;83.44
9855;BME280;4966;48.112;9.282;2022-07-06T00:14:26;95272.34;;;13.16;83.25
9855;BME280;4966;48.112;9.282;2022-07-06T00:16:51;95274.97;;;13.13;83.51
9855;BME280;4966;48.112;9.282;2022-07-06T00:19:17;95276.25;;;13.15;82.50
9855;BME280;4966;48.112;9.282;2022-07-06T00:21:42;95280.53;;;13.04;83.06
9855;BME280;4966;48.112;9.282;2022-07-06T00:24:08;95281.31;;;12.92;83.45
9855;BME280;4966;48.112;9.282;2022-07-06T00:26:33;95276.00;;;13.08;83.01
9855;BME280;4966;48.112;9.282;2022-07-06T00:28:58;95277.00;;;13.04;83.32
9855;BME280;4966;48.112;9.282;2022-07-06T00:31:24;95274.19;;;13.00;83.53
9855;BME280;4966;48.112;9.282;2022-07-06T00:33:49;95275.44;;;13.03;83.50
9855;BME280;4966;48.112;9.282;2022-07-06T00:36:15;95275.97;;;12.96;83.69
9855;BME280;4966;48.112;9.282;2022-07-06T00:38:40;95270.28;;;12.89;83.93
9855;BME280;4966;48.112;9.282;2022-07-06T00:41:06;95277.69;;;12.88;83.92
9855;BME280;4966;48.112;9.282;2022-07-06T00:43:48;95277.09;;;12.95;83.32
9855;BME280;4966;48.112;9.282;2022-07-06T00:46:13;95270.97;;;12.86;83.69
9855;BME280;4966;48.112;9.282;2022-07-06T00:48:39;95271.63;;;12.83;83.67
9855;BME280;4966;48.112;9.282;2022-07-06T00:51:04;95274.81;;;12.85;83.43
9855;BME280;4966;48.112;9.282;2022-07-06T00:53:30;95267.59;;;12.68;84.00
9855;BME280;4966;48.112;9.282;2022-07-06T00:55:55;95263.03;;;12.60;84.40
9855;BME280;4966;48.112;9.282;2022-07-06T00:58:21;95273.06;;;12.68;84.21
9855;BME280;4966;48.112;9.282;2022-07-06T01:00:46;95272.75;;;12.82;83.19
9855;BME280;4966;48.112;9.282;2022-07-06T01:03:11;95268.16;;;12.73;83.13
9855;BME280;4966;48.112;9.282;2022-07-06T01:05:37;95268.84;;;12.70;83.07
9855;BME280;4966;48.112;9.282;2022-07-06T01:08:02;95263.72;;;12.69;83.27
9855;BME280;4966;48.112;9.282;2022-07-06T01:10:28;95268.69;;;12.54;83.76
9855;BME280;4966;48.112;9.282;2022-07-06T01:12:54;95271.91;;;12.69;83.24
9855;BME280;4966;48.112;9.282;2022-07-06T01:15:21;95263.47;;;12.62;83.60
9855;BME280;4966;48.112;9.282;2022-07-06T01:17:48;95268.63;;;12.42;84.81
9855;BME280;4966;48.112;9.282;2022-07-06T01:20:17;95264.25;;;12.50;84.39
9855;BME280;4966;48.112;9.282;2022-07-06T01:22:44;95257.31;;;12.52;84.11
9855;BME280;4966;48.112;9.282;2022-07-06T01:25:10;95253.19;;;12.46;84.62
9855;BME280;4966;48.112;9.282;2022-07-06T01:27:38;95259.13;;;12.48;84.33
9855;BME280;4966;48.112;9.282;2022-07-06T01:30:09;95251.19;;;12.55;84.58
9855;BME280;4966;48.112;9.282;2022-07-06T01:32:36;95251.19;;;12.55;84.27
9855;BME280;4966;48.112;9.282;2022-07-06T01:35:01;95253.78;;;12.52;84.75
9855;BME280;4966;48.112;9.282;2022-07-06T01:37:27;95254.84;;;12.60;84.25
9855;BME280;4966;48.112;9.282;2022-07-06T01:39:53;95259.31;;;12.64;82.55
9855;BME280;4966;48.112;9.282;2022-07-06T01:42:18;95258.81;;;12.50;83.64
9855;BME280;4966;48.112;9.282;2022-07-06T01:44:44;95258.19;;;12.44;84.36
9855;BME280;4966;48.112;9.282;2022-07-06T01:47:10;95259.34;;;12.43;84.36
9855;BME280;4966;48.112;9.282;2022-07-06T01:49:35;95256.31;;;12.57;83.63
9855;BME280;4966;48.112;9.282;2022-07-06T01:52:01;95259.44;;;12.47;83.99
9855;BME280;4966;48.112;9.282;2022-07-06T01:54:26;95248.22;;;12.48;84.47
9855;BME280;4966;48.112;9.282;2022-07-06T01:56:52;95251.63;;;12.45;83.85
9855;BME280;4966;48.112;9.282;2022-07-06T01:59:17;95250.91;;;12.36;84.07
9855;BME280;4966;48.112;9.282;2022-07-06T02:01:42;95255.88;;;12.34;85.59
9855;BME280;4966;48.112;9.282;2022-07-06T02:04:08;95256.22;;;12.32;86.92
9855;BME280;4966;48.112;9.282;2022-07-06T02:06:33;95261.09;;;12.27;87.78
9855;BME280;4966;48.112;9.282;2022-07-06T02:08:58;95247.03;;;12.37;87.81
9855;BME280;4966;48.112;9.282;2022-07-06T02:11:24;95253.53;;;12.45;87.05
9855;BME280;4966;48.112;9.282;2022-07-06T02:13:49;95259.97;;;12.40;87.14
9855;BME280;4966;48.112;9.282;2022-07-06T02:16:15;95246.59;;;12.47;86.02
9855;BME280;4966;48.112;9.282;2022-07-06T02:18:40;95244.53;;;12.44;85.53
9855;BME280;4966;48.112;9.282;2022-07-06T02:21:06;95253.28;;;12.38;86.34
9855;BME280;4966;48.112;9.282;2022-07-06T02:23:31;95253.84;;;12.31;86.55
9855;BME280;4966;48.112;9.282;2022-07-06T02:25:57;95255.16;;;12.25;88.02
9855;BME280;4966;48.112;9.282;2022-07-06T02:28:22;95266.28;;;12.20;88.91
9855;BME280;4966;48.112;9.282;2022-07-06T02:30:47;95256.56;;;12.31;87.87
9855;BME280;4966;48.112;9.282;2022-07-06T02:33:13;95258.63;;;12.34;87.55
9855;BME280;4966;48.112;9.282;2022-07-06T02:35:38;95257.88;;;12.25;87.96
9855;BME280;4966;48.112;9.282;2022-07-06T02:38:07;95256.81;;;12.38;87.23
9855;BME280;4966;48.112;9.282;2022-07-06T02:40:33;95267.06;;;12.41;86.69
9855;BME280;4966;48.112;9.282;2022-07-06T02:42:58;95260.66;;;12.37;87.21
9855;BME280;4966;48.112;9.282;2022-07-06T02:45:23;95260.44;;;12.42;87.11
9855;BME280;4966;48.112;9.282;2022-07-06T02:47:49;95259.56;;;12.38;86.95
9855;BME280;4966;48.112;9.282;2022-07-06T02:50:16;95267.06;;;12.41;86.12
9855;BME280;4966;48.112;9.282;2022-07-06T02:52:41;95266.72;;;12.43;85.81
9855;BME280;4966;48.112;9.282;2022-07-06T02:55:07;95260.75;;;12.28;86.38
9855;BME280;4966;48.112;9.282;2022-07-06T02:57:32;95261.56;;;12.29;86.33
9855;BME280;4966;48.112;9.282;2022-07-06T02:59:58;95273.25;;;12.29;86.08
9855;BME280;4966;48.112;9.282;2022-07-06T03:02:23;95269.59;;;12.25;86.28
9855;BME280;4966;48.112;9.282;2022-07-06T03:04:49;95265.19;;;12.33;86.95
9855;BME280;4966;48.112;9.282;2022-07-06T03:07:15;95267.47;;;12.31;86.66
9855;BME280;4966;48.112;9.282;2022-07-06T03:09:40;95265.41;;;12.28;86.54
9855;BME280;4966;48.112;9.282;2022-07-06T03:12:06;95262.34;;;12.29;86.51
9855;BME280;4966;48.112;9.282;2022-07-06T03:14:32;95264.75;;;12.31;86.63
9855;BME280;4966;48.112;9.282;2022-07-06T03:16:57;95262.97;;;12.14;87.88
9855;BME280;4966;48.112;9.282;2022-07-06T03:19:22;95278.25;;;12.27;86.56
9855;BME280;4966;48.112;9.282;2022-07-06T03:21:48;95278.34;;;12.19;86.98
9855;BME280;4966;48.112;9.282;2022-07-06T03:24:13;95278.78;;;12.21;87.40
9855;BME280;4966;48.112;9.282;2022-07-06T03:26:38;95261.97;;;12.19;88.11
9855;BME280;4966;48.112;9.282;2022-07-06T03:29:04;95266.38;;;12.23;87.48
9855;BME280;4966;48.112;9.282;2022-07-06T03:31:29;95267.28;;;12.15;87.94
9855;BME280;4966;48.112;9.282;2022-07-06T03:33:55;95270.69;;;12.12;87.86
9855;BME280;4966;48.112;9.282;2022-07-06T03:36:20;95269.75;;;12.08;88.95
9855;BME280;4966;48.112;9.282;2022-07-06T03:38:46;95278.06;;;12.11;89.36
9855;BME280;4966;48.112;9.282;2022-07-06T03:41:11;95268.78;;;12.25;89.13
9855;BME280;4966;48.112;9.282;2022-07-06T03:43:36;95274.84;;;11.88;91.36
9855;BME280;4966;48.112;9.282;2022-07-06T03:46:02;95272.88;;;12.19;90.16
9855;BME280;4966;48.112;9.282;2022-07-06T03:48:28;95276.13;;;12.12;91.27
9855;BME280;4966;48.112;9.282;2022-07-06T03:50:54;95271.84;;;12.23;90.63
9855;BME280;4966;48.112;9.282;2022-07-06T03:53:19;95275.66;;;12.31;90.31
9855;BME280;4966;48.112;9.282;2022-07-06T03:55:45;95268.25;;;12.31;90.54
9855;BME280;4966;48.112;9.282;2022-07-06T03:58:30;95267.59;;;12.68;86.79
9855;BME280;4966;48.112;9.282;2022-07-06T04:00:56;95271.03;;;12.77;87.19
9855;BME280;4966;48.112;9.282;2022-07-06T04:03:21;95275.50;;;12.82;87.21
9855;BME280;4966;48.112;9.282;2022-07-06T04:05:47;95270.63;;;12.99;86.13
9855;BME280;4966;48.112;9.282;2022-07-06T04:08:12;95276.31;;;13.07;85.46
9855;BME280;4966;48.112;9.282;2022-07-06T04:10:38;95275.78;;;13.13;84.61
9855;BME280;4966;48.112;9.282;2022-07-06T04:13:03;95281.09;;;12.97;85.86
9855;BME280;4966;48.112;9.282;2022-07-06T04:15:28;95289.66;;;13.08;86.14
9855;BME280;4966;48.112;9.282;2022-07-06T04:17:54;95286.59;;;13.22;85.11
9855;BME280;4966;48.112;9.282;2022-07-06T04:20:22;95288.09;;;13.19;85.52
9855;BME280;4966;48.112;9.282;2022-07-06T04:22:48;95290.88;;;13.44;84.85
9855;BME280;4966;48.112;9.282;2022-07-06T04:25:14;95287.66;;;13.54;83.79
9855;BME280;4966;48.112;9.282;2022-07-06T04:27:40;95292.25;;;13.63;84.11
9855;BME280;4966;48.112;9.282;2022-07-06T04:30:07;95285.50;;;13.72;83.79
9855;BME280;4966;48.112;9.282;2022-07-06T04:32:34;95293.09;;;14.03;81.12
9855;BME280;4966;48.112;9.282;2022-07-06T04:34:59;95286.78;;;14.28;80.88
9855;BME280;4966;48.112;9.282;2022-07-06T04:37:25;95296.47;;;14.53;78.95
9855;BME280;4966;48.112;9.282;2022-07-06T04:39:50;95299.63;;;14.80;79.12
9855;BME280;4966;48.112;9.282;2022-07-06T04:42:16;95290.75;;;15.15;78.93
9855;BME280;4966;48.112;9.282;2022-07-06T04:44:41;95281.50;;;15.35;76.56
9855;BME280;4966;48.112;9.282;2022-07-06T04:47:07;95287.94;;;15.59;75.99
9855;BME280;4966;48.112;9.282;2022-07-06T04:49:32;95291.47;;;15.75;77.42
9855;BME280;4966;48.112;9.282;2022-07-06T04:51:58;95292.59;;;16.25;74.83
9855;BME280;4966;48.112;9.282;2022-07-06T04:54:23;95291.53;;;16.69;72.83
9855;BME280;4966;48.112;9.282;2022-07-06T04:56:48;95283.50;;;16.99;71.36
9855;BME280;4966;48.112;9.282;2022-07-06T04:59:14;95278.44;;;17.01;70.03
9855;BME280;4966;48.112;9.282;2022-07-06T05:01:40;95290.22;;;17.44;69.39
9855;BME280;4966;48.112;9.282;2022-07-06T05:04:06;95284.66;;;17.17;70.27
9855;BME280;4966;48.112;9.282;2022-07-06T05:06:31;95285.47;;;16.98;70.65
9855;BME280;4966;48.112;9.282;2022-07-06T05:08:57;95291.06;;;16.83;70.95
9855;BME280;4966;48.112;9.282;2022-07-06T05:11:24;95287.78;;;16.96;71.00
9855;BME280;4966;48.112;9.282;2022-07-06T05:13:49;95292.47;;;17.15;68.42
9855;BME280;4966;48.112;9.282;2022-07-06T05:16:15;95297.16;;;17.15;67.83
9855;BME280;4966;48.112;9.282;2022-07-06T05:18:40;95292.81;;;17.14;71.57
9855;BME280;4966;48.112;9.282;2022-07-06T05:21:06;95297.25;;;16.99;70.44
9855;BME280;4966;48.112;9.282;2022-07-06T05:23:31;95289.81;;;16.61;70.95
9855;BME280;4966;48.112;9.282;2022-07-06T05:25:57;95286.13;;;16.53;71.61
9855;BME280;4966;48.112;9.282;2022-07-06T05:28:22;95297.28;;;16.79;72.15
9855;BME280;4966;48.112;9.282;2022-07-06T05:30:47;95308.53;;;16.94;71.44
9855;BME280;4966;48.112;9.282;2022-07-06T05:33:13;95307.81;;;16.97;72.25
9855;BME280;4966;48.112;9.282;2022-07-06T05:35:38;95311.44;;;17.01;71.06
9855;BME280;4966;48.112;9.282;2022-07-06T05:38:03;95302.53;;;17.08;70.87
9855;BME280;4966;48.112;9.282;2022-07-06T05:40:30;95312.03;;;16.91;71.19
9855;BME280;4966;48.112;9.282;2022-07-06T05:42:55;95313.78;;;17.22;69.12
9855;BME280;4966;48.112;9.282;2022-07-06T05:45:20;95308.22;;;17.64;66.61
9855;BME280;4966;48.112;9.282;2022-07-06T05:47:47;95313.44;;;17.70;67.23
9855;BME280;4966;48.112;9.282;2022-07-06T05:50:31;95318.50;;;17.68;65.43
9855;BME280;4966;48.112;9.282;2022-07-06T05:53:02;95309.50;;;18.20;65.99
9855;BME280;4966;48.112;9.282;2022-07-06T05:55:28;95312.72;;;18.26;67.00
9855;BME280;4966;48.112;9.282;2022-07-06T05:57:54;95313.03;;;18.47;66.27
9855;BME280;4966;48.112;9.282;2022-07-06T06:00:21;95307.22;;;18.83;63.99
9855;BME280;4966;48.112;9.282;2022-07-06T06:02:47;95316.50;;;19.01;64.22
9855;BME280;4966;48.112;9.282;2022-07-06T06:05:14;95313.97;;;19.23;64.91
9855;BME280;4966;48.112;9.282;2022-07-06T06:07:39;95330.88;;;19.21;62.41
9855;BME280;4966;48.112;9.282;2022-07-06T06:10:09;95320.13;;;19.50;59.47
9855;BME280;4966;48.112;9.282;2022-07-06T06:12:35;95321.44;;;19.63;55.90
9855;BME280;4966;48.112;9.282;2022-07-06T06:15:01;95312.97;;;19.83;55.23
9855;BME280;4966;48.112;9.282;2022-07-06T06:17:27;95315.91;;;20.04;55.41
9855;BME280;4966;48.112;9.282;2022-07-06T06:19:52;95319.69;;;20.44;54.21
9855;BME280;4966;48.112;9.282;2022-07-06T06:22:18;95318.41;;;20.27;49.97
9855;BME280;4966;48.112;9.282;2022-07-06T06:24:43;95324.56;;;20.03;50.20
9855;BME280;4966;48.112;9.282;2022-07-06T06:27:09;95317.03;;;20.00;50.13
9855;BME280;4966;48.112;9.282;2022-07-06T06:29:34;95320.34;;;20.23;50.33
9855;BME280;4966;48.112;9.282;2022-07-06T06:31:59;95322.41;;;19.82;50.71
9855;BME280;4966;48.112;9.282;2022-07-06T06:34:25;95321.38;;;19.97;50.24
9855;BME280;4966;48.112;9.282;2022-07-06T06:36:50;95316.78;;;20.23;50.91
9855;BME280;4966;48.112;9.282;2022-07-06T06:39:15;95320.91;;;19.09;50.71
9855;BME280;4966;48.112;9.282;2022-07-06T06:41:41;95327.34;;;19.62;51.49
9855;BME280;4966;48.112;9.282;2022-07-06T06:44:08;95320.84;;;19.81;51.25
9855;BME280;4966;48.112;9.282;2022-07-06T06:46:33;95314.91;;;19.82;50.51
9855;BME280;4966;48.112;9.282;2022-07-06T06:48:58;95315.19;;;20.18;52.71
9855;BME280;4966;48.112;9.282;2022-07-06T06:51:24;95315.00;;;20.52;49.63
9855;BME280;4966;48.112;9.282;2022-07-06T06:53:50;95321.34;;;20.52;49.01
9855;BME280;4966;48.112;9.282;2022-07-06T06:56:15;95323.66;;;20.47;49.24
9855;BME280;4966;48.112;9.282;2022-07-06T06:58:42;95316.34;;;20.79;49.16
9855;BME280;4966;48.112;9.282;2022-07-06T07:01:07;95313.53;;;20.62;50.65
9855;BME280;4966;48.112;9.282;2022-07-06T07:03:33;95309.00;;;20.39;49.35
9855;BME280;4966;48.112;9.282;2022-07-06T07:05:59;95317.00;;;20.55;49.95
9855;BME280;4966;48.112;9.282;2022-07-06T07:08:24;95310.59;;;20.40;50.88
9855;BME280;4966;48.112;9.282;2022-07-06T07:10:50;95313.41;;;20.47;48.71
9855;BME280;4966;48.112;9.282;2022-07-06T07:13:15;95314.19;;;20.51;49.19
9855;BME280;4966;48.112;9.282;2022-07-06T07:15:41;95313.75;;;20.38;49.26
9855;BME280;4966;48.112;9.282;2022-07-06T07:18:06;95320.81;;;20.32;48.89
9855;BME280;4966;48.112;9.282;2022-07-06T07:20:31;95308.97;;;20.32;48.41
9855;BME280;4966;48.112;9.282;2022-07-06T07:22:59;95314.75;;;20.12;49.83
9855;BME280;4966;48.112;9.282;2022-07-06T07:25:24;95313.31;;;20.33;50.41
9855;BME280;4966;48.112;9.282;2022-07-06T07:27:50;95313.00;;;20.45;50.48
9855;BME280;4966;48.112;9.282;2022-07-06T07:30:15;95308.91;;;20.91;49.56
9855;BME280;4966;48.112;9.282;2022-07-06T07:32:41;95306.88;;;20.88;50.33
9855;BME280;4966;48.112;9.282;2022-07-06T07:35:06;95306.13;;;20.91;48.19
9855;BME280;4966;48.112;9.282;2022-07-06T07:37:32;95306.53;;;20.93;49.39
9855;BME280;4966;48.112;9.282;2022-07-06T07:39:57;95303.84;;;21.18;49.49
9855;BME280;4966;48.112;9.282;2022-07-06T07:42:23;95313.72;;;21.15;48.76
9855;BME280;4966;48.112;9.282;2022-07-06T07:44:48;95306.63;;;21.25;47.72
9855;BME280;4966;48.112;9.282;2022-07-06T07:47:13;95311.00;;;21.37;48.72
9855;BME280;4966;48.112;9.282;2022-07-06T07:49:39;95313.81;;;21.48;47.43
9855;BME280;4966;48.112;9.282;2022-07-06T07:52:04;95315.41;;;21.74;48.68
9855;BME280;4966;48.112;9.282;2022-07-06T07:54:30;95317.41;;;22.30;47.10
9855;BME280;4966;48.112;9.282;2022-07-06T07:56:55;95318.50;;;22.76;47.29
9855;BME280;4966;48.112;9.282;2022-07-06T07:59:21;95311.72;;;22.99;45.24
9855;BME280;4966;48.112;9.282;2022-07-06T08:01:47;95314.00;;;23.18;45.11
9855;BME280;4966;48.112;9.282;2022-07-06T08:04:13;95313.84;;;21.83;46.63
9855;BME280;4966;48.112;9.282;2022-07-06T08:06:38;95317.03;;;22.11;47.54
9855;BME280;4966;48.112;9.282;2022-07-06T08:09:03;95321.25;;;22.83;45.43
9855;BME280;4966;48.112;9.282;2022-07-06T08:11:30;95315.50;;;23.33;43.86
9855;BME280;4966;48.112;9.282;2022-07-06T08:13:55;95315.19;;;23.84;42.73
9855;BME280;4966;48.112;9.282;2022-07-06T08:16:21;95323.25;;;23.64;41.92
9855;BME280;4966;48.112;9.282;2022-07-06T08:18:46;95318.81;;;23.77;41.89
9855;BME280;4966;48.112;9.282;2022-07-06T08:21:11;95321.50;;;23.18;43.44
9855;BME280;4966;48.112;9.282;2022-07-06T08:23:37;95320.47;;;23.60;41.47
9855;BME280;4966;48.112;9.282;2022-07-06T08:26:03;95318.63;;;23.43;42.30
9855;BME280;4966;48.112;9.282;2022-07-06T08:28:28;95313.84;;;22.16;47.07
9855;BME280;4966;48.112;9.282;2022-07-06T08:30:54;95315.66;;;23.01;45.42
9855;BME280;4966;48.112;9.282;2022-07-06T08:33:20;95316.09;;;22.78;46.89
9855;BME280;4966;48.112;9.282;2022-07-06T08:35:46;95318.09;;;23.62;45.60
9855;BME280;4966;48.112;9.282;2022-07-06T08:38:11;95317.75;;;23.53;45.28
9855;BME280;4966;48.112;9.282;2022-07-06T08:40:38;95320.47;;;22.76;45.18
9855;BME280;4966;48.112;9.282;2022-07-06T08:43:05;95312.97;;;22.69;45.88
9855;BME280;4966;48.112;9.282;2022-07-06T08:45:30;95315.59;;;23.12;45.92
9855;BME280;4966;48.112;9.282;2022-07-06T08:48:04;95315.19;;;23.17;45.53
9855;BME280;4966;48.112;9.282;2022-07-06T08:50:30;95316.81;;;23.77;44.41
9855;BME280;4966;48.112;9.282;2022-07-06T08:52:56;95320.94;;;24.11;42.82
9855;BME280;4966;48.112;9.282;2022-07-06T08:55:22;95324.25;;;23.95;42.68
9855;BME280;4966;48.112;9.282;2022-07-06T08:57:48;95334.25;;;23.85;42.85
9855;BME280;4966;48.112;9.282;2022-07-06T09:00:14;95325.31;;;24.12;42.18
9855;BME280;4966;48.112;9.282;2022-07-06T09:02:40;95324.03;;;24.65;43.30
9855;BME280;4966;48.112;9.282;2022-07-06T09:05:06;95328.72;;;24.72;42.79
9855;BME280;4966;48.112;9.282;2022-07-06T09:07:34;95333.19;;;23.57;42.42
9855;BME280;4966;48.112;9.282;2022-07-06T09:09:59;95333.78;;;24.39;41.55
9855;BME280;4966;48.112;9.282;2022-07-06T09:12:28;95335.63;;;23.52;40.41
9855;BME280;4966;48.112;9.282;2022-07-06T09:14:56;95338.97;;;24.37;38.70
9855;BME280;4966;48.112;9.282;2022-07-06T09:17:28;95337.00;;;24.37;39.01
9855;BME280;4966;48.112;9.282;2022-07-06T09:19:54;95338.66;;;24.28;39.11
9855;BME280;4966;48.112;9.282;2022-07-06T09:22:31;95338.66;;;23.72;40.30
9855;BME280;4966;48.112;9.282;2022-07-06T09:25:04;95340.13;;;23.94;38.62
9855;BME280;4966;48.112;9.282;2022-07-06T09:27:30;95345.75;;;23.87;40.09
9855;BME280;4966;48.112;9.282;2022-07-06T09:29:59;95335.25;;;23.46;40.63
9855;BME280;4966;48.112;9.282;2022-07-06T09:32:26;95344.22;;;23.72;40.14
9855;BME280;4966;48.112;9.282;2022-07-06T09:34:51;95335.63;;;22.46;41.14
9855;BME280;4966;48.112;9.282;2022-07-06T09:37:17;95344.34;;;23.50;39.61
9855;BME280;4966;48.112;9.282;2022-07-06T09:39:43;95346.13;;;24.34;40.60
9855;BME280;4966;48.112;9.282;2022-07-06T09:42:10;95347.28;;;24.40;37.85
9855;BME280;4966;48.112;9.282;2022-07-06T09:44:37;95344.03;;;24.49;36.87
9855;BME280;4966;48.112;9.282;2022-07-06T09:47:05;95340.22;;;24.74;36.85
9855;BME280;4966;48.112;9.282;2022-07-06T09:49:31;95346.13;;;25.14;37.78
9855;BME280;4966;48.112;9.282;2022-07-06T09:51:59;95340.84;;;24.89;37.15
9855;BME280;4966;48.112;9.282;2022-07-06T09:54:26;95343.78;;;25.09;35.58
9855;BME280;4966;48.112;9.282;2022-07-06T09:56:52;95343.09;;;25.35;36.14
9855;BME280;4966;48.112;9.282;2022-07-06T09:59:28;95348.06;;;25.20;35.05
9855;BME280;4966;48.112;9.282;2022-07-06T10:01:58;95348.53;;;25.46;34.89
9855;BME280;4966;48.112;9.282;2022-07-06T10:04:26;95339.28;;;25.80;37.20
9855;BME280;4966;48.112;9.282;2022-07-06T10:06:52;95340.66;;;26.22;35.12
9855;BME280;4966;48.112;9.282;2022-07-06T10:09:20;95350.84;;;25.51;36.36
9855;BME280;4966;48.112;9.282;2022-07-06T10:11:51;95350.75;;;24.93;36.47
9855;BME280;4966;48.112;9.282;2022-07-06T10:14:18;95345.97;;;25.28;34.97
9855;BME280;4966;48.112;9.282;2022-07-06T10:16:46;95351.50;;;25.62;35.82
9855;BME280;4966;48.112;9.282;2022-07-06T10:19:13;95352.00;;;25.54;36.01
9855;BME280;4966;48.112;9.282;2022-07-06T10:21:40;95348.19;;;25.40;36.96
9855;BME280;4966;48.112;9.282;2022-07-06T10:24:07;95345.47;;;25.64;35.73
9855;BME280;4966;48.112;9.282;2022-07-06T10:26:34;95336.69;;;25.96;34.98
9855;BME280;4966;48.112;9.282;2022-07-06T10:29:01;95336.94;;;26.05;35.65
9855;BME280;4966;48.112;9.282;2022-07-06T10:31:27;95334.09;;;26.33;38.50
9855;BME280;4966;48.112;9.282;2022-07-06T10:33:56;95337.31;;;26.07;36.47
9855;BME280;4966;48.112;9.282;2022-07-06T10:36:22;95325.94;;;25.06;36.41
9855;BME280;4966;48.112;9.282;2022-07-06T10:38:50;95331.16;;;25.35;36.86
9855;BME280;4966;48.112;9.282;2022-07-06T10:41:16;95338.63;;;25.72;35.62
9855;BME280;4966;48.112;9.282;2022-07-06T10:43:43;95336.81;;;25.58;37.44
9855;BME280;4966;48.112;9.282;2022-07-06T10:46:11;95327.22;;;25.32;37.46
9855;BME280;4966;48.112;9.282;2022-07-06T10:48:42;95338.81;;;25.88;37.75
9855;BME280;4966;48.112;9.282;2022-07-06T10:51:08;95332.78;;;25.90;34.89
9855;BME280;4966;48.112;9.282;2022-07-06T10:53:37;95331.41;;;25.13;35.93
9855;BME280;4966;48.112;9.282;2022-07-06T10:56:10;95329.00;;;25.19;36.60
9855;BME280;4966;48.112;9.282;2022-07-06T11:01:11;95322.94;;;25.55;35.13
9855;BME280;4966;48.112;9.282;2022-07-06T11:03:38;95324.59;;;26.54;35.12
9855;BME280;4966;48.112;9.282;2022-07-06T11:06:07;95330.59;;;28.87;30.00
9855;BME280;4966;48.112;9.282;2022-07-06T11:08:43;95315.50;;;31.77;27.47
9855;BME280;4966;48.112;9.282;2022-07-06T11:14:09;95313.69;;;31.52;25.16
9855;BME280;4966;48.112;9.282;2022-07-06T11:19:19;95319.75;;;33.36;24.52
9855;BME280;4966;48.112;9.282;2022-07-06T11:21:45;95302.59;;;31.89;24.32
9855;BME280;4966;48.112;9.282;2022-07-06T11:24:16;95307.59;;;31.09;27.23
9855;BME280;4966;48.112;9.282;2022-07-06T11:26:47;95303.72;;;29.86;27.52
9855;BME280;4966;48.112;9.282;2022-07-06T11:29:14;95310.16;;;29.02;29.56
9855;BME280;4966;48.112;9.282;2022-07-06T11:31:41;95305.38;;;27.39;31.42
9855;BME280;4966;48.112;9.282;2022-07-06T11:34:09;95299.09;;;26.95;32.91
9855;BME280;4966;48.112;9.282;2022-07-06T11:36:35;95302.00;;;27.48;31.34
9855;BME280;4966;48.112;9.282;2022-07-06T11:39:00;95290.16;;;29.84;28.46
9855;BME280;4966;48.112;9.282;2022-07-06T11:41:26;95289.75;;;30.21;26.37
9855;BME280;4966;48.112;9.282;2022-07-06T11:43:51;95281.53;;;31.09;24.84
9855;BME280;4966;48.112;9.282;2022-07-06T11:46:28;95291.84;;;30.90;25.48
9855;BME280;4966;48.112;9.282;2022-07-06T11:48:56;95294.72;;;28.52;29.01
9855;BME280;4966;48.112;9.282;2022-07-06T11:51:24;95289.28;;;27.63;30.79
9855;BME280;4966;48.112;9.282;2022-07-06T11:53:53;95296.97;;;27.59;31.41
9855;BME280;4966;48.112;9.282;2022-07-06T11:56:19;95288.81;;;29.89;29.17
9855;BME280;4966;48.112;9.282;2022-07-06T11:58:48;95280.91;;;31.36;24.62
9855;BME280;4966;48.112;9.282;2022-07-06T12:01:14;95278.78;;;30.61;26.26
9855;BME280;4966;48.112;9.282;2022-07-06T12:03:40;95274.13;;;31.77;25.31
9855;BME280;4966;48.112;9.282;2022-07-06T12:06:12;95273.59;;;33.06;22.85
9855;BME280;4966;48.112;9.282;2022-07-06T12:11:32;95263.31;;;31.13;25.97
9855;BME280;4966;48.112;9.282;2022-07-06T12:14:00;95269.06;;;30.53;26.16
9855;BME280;4966;48.112;9.282;2022-07-06T12:16:35;95257.25;;;29.34;25.75
9855;BME280;4966;48.112;9.282;2022-07-06T12:19:03;95247.91;;;28.82;27.47
9855;BME280;4966;48.112;9.282;2022-07-06T12:21:29;95253.34;;;30.43;26.30
9855;BME280;4966;48.112;9.282;2022-07-06T12:23:54;95257.69;;;32.35;25.02
9855;BME280;4966;48.112;9.282;2022-07-06T12:26:23;95256.47;;;33.28;22.70
9855;BME280;4966;48.112;9.282;2022-07-06T12:29:04;95256.56;;;33.52;21.95
9855;BME280;4966;48.112;9.282;2022-07-06T12:31:43;95264.72;;;34.50;20.49
9855;BME280;4966;48.112;9.282;2022-07-06T12:34:16;95256.75;;;35.86;20.67
9855;BME280;4966;48.112;9.282;2022-07-06T12:36:47;95256.13;;;37.66;17.36
9855;BME280;4966;48.112;9.282;2022-07-06T12:39:15;95241.66;;;38.93;16.38
9855;BME280;4966;48.112;9.282;2022-07-06T12:41:55;95240.03;;;39.80;14.73
9855;BME280;4966;48.112;9.282;2022-07-06T12:44:23;95241.03;;;40.00;15.41
9855;BME280;4966;48.112;9.282;2022-07-06T12:46:50;95243.19;;;36.87;17.02
9855;BME280;4966;48.112;9.282;2022-07-06T12:49:21;95233.50;;;39.80;14.43
9855;BME280;4966;48.112;9.282;2022-07-06T12:54:31;95244.59;;;32.96;20.27
9855;BME280;4966;48.112;9.282;2022-07-06T12:59:29;95234.63;;;34.71;20.72
9855;BME280;4966;48.112;9.282;2022-07-06T13:01:55;95231.09;;;36.45;18.03
9855;BME280;4966;48.112;9.282;2022-07-06T13:04:25;95229.53;;;38.98;15.00
9855;BME280;4966;48.112;9.282;2022-07-06T13:06:51;95219.91;;;38.90;15.40
9855;BME280;4966;48.112;9.282;2022-07-06T13:09:17;95211.50;;;39.41;14.72
9855;BME280;4966;48.112;9.282;2022-07-06T13:11:44;95216.91;;;39.22;16.52
9855;BME280;4966;48.112;9.282;2022-07-06T13:14:10;95220.28;;;40.27;16.22
9855;BME280;4966;48.112;9.282;2022-07-06T13:16:35;95218.50;;;39.62;15.18
9855;BME280;4966;48.112;9.282;2022-07-06T13:19:01;95222.88;;;38.04;16.33
9855;BME280;4966;48.112;9.282;2022-07-06T13:21:26;95220.84;;;37.46;17.68
9855;BME280;4966;48.112;9.282;2022-07-06T13:23:52;95214.50;;;38.32;15.20
9855;BME280;4966;48.112;9.282;2022-07-06T13:26:17;95213.97;;;38.88;14.09
9855;BME280;4966;48.112;9.282;2022-07-06T13:28:43;95218.50;;;39.73;14.51
9855;BME280;4966;48.112;9.282;2022-07-06T13:31:08;95203.97;;;41.69;12.54
9855;BME280;4966;48.112;9.282;2022-07-06T13:33:33;95198.03;;;40.09;14.49
9855;BME280;4966;48.112;9.282;2022-07-06T13:36:00;95211.44;;;39.12;15.63